Time;durP1;ratioP1;P1;durP2;ratioP2;P2;SDS_P1;SDS_P2;PMS_P1;PMS_P2;Temp;Humidity;BMP_temperature;BMP_pressure;BME280_temperature;BME280_humidity;BME280_pressure;Samples;Min_cycle;Max_cycle;Signal;HPM_P1;HPM_P2
2023/09/19 00:00:57;;;;;;;6.55;4.22;;;;;;;;;;2556070;23;20009;-89
2023/09/19 00:01:57;;;;;;;5.45;3.83;;;;;;;;;;2556364;23;20399;-89
2023/09/19 00:03:01;;;;;;;5.68;4.40;;;;;;;;;;2555846;23;20005;-89
2023/09/19 00:04:02;;;;;;;7.90;4.90;;;;;;;;;;2570889;23;20086;-89
2023/09/19 00:05:03;;;;;;;6.50;3.80;;;;;;;;;;2580874;23;20030;-90
2023/09/19 00:06:04;;;;;;;5.68;4.10;;;;;;;;;;2580946;23;20003;-90
2023/09/19 00:07:05;;;;;;;4.43;4.03;;;;;;;;;;2569934;23;20079;-90
2023/09/19 00:08:06;;;;;;;7.88;4.28;;;;;;;;;;2582993;23;20000;-90
2023/09/19 00:09:10;;;;;;;6.80;4.22;;;;;;;;;;2568431;23;20013;-90
2023/09/19 00:10:11;;;;;;;4.40;3.92;;;;;;;;;;2570102;23;20024;-89
2023/09/19 00:11:11;;;;;;;6.65;4.45;;;;;;;;;;2582644;23;20417;-89
2023/09/19 00:12:13;;;;;;;6.10;4.50;;;;;;;;;;2568127;23;20039;-89
2023/09/19 00:13:14;;;;;;;5.97;3.97;;;;;;;;;;2569371;23;20005;-89
2023/09/19 00:14:14;;;;;;;6.10;4.78;;;;;;;;;;2568152;23;20005;-89
2023/09/19 00:15:17;;;;;;;5.90;4.30;;;;;;;;;;2569139;23;20390;-90
2023/09/19 00:16:18;;;;;;;6.30;5.13;;;;;;;;;;2139883;22;10265662;-89
2023/09/19 00:17:19;;;;;;;7.95;4.35;;;;;;;;;;2568132;23;20136;-89
2023/09/19 00:18:24;;;;;;;7.30;4.93;;;;;;;;;;2548938;23;20100;-89
2023/09/19 00:19:24;;;;;;;7.88;4.85;;;;;;;;;;2569340;23;20048;-89
2023/09/19 00:20:25;;;;;;;8.07;4.53;;;;;;;;;;2568391;23;20460;-90
2023/09/19 00:21:26;;;;;;;7.35;4.88;;;;;;;;;;2555836;23;20041;-89
2023/09/19 00:22:26;;;;;;;6.85;4.28;;;;;;;;;;2568597;23;20020;-90
2023/09/19 00:23:28;;;;;;;7.05;4.95;;;;;;;;;;2568140;23;20008;-89
2023/09/19 00:24:28;;;;;;;5.97;4.53;;;;;;;;;;2555811;23;20001;-90
2023/09/19 00:25:28;;;;;;;5.18;4.32;;;;;;;;;;2572412;23;20346;-90
2023/09/19 00:26:30;;;;;;;6.50;4.45;;;;;;;;;;2585368;23;20082;-89
2023/09/19 00:27:31;;;;;;;6.88;4.53;;;;;;;;;;2568146;23;20000;-89
2023/09/19 00:28:32;;;;;;;4.97;4.47;;;;;;;;;;2572228;23;19996;-90
2023/09/19 00:29:32;;;;;;;6.85;4.30;;;;;;;;;;2568356;23;20000;-89
2023/09/19 00:30:34;;;;;;;5.72;4.70;;;;;;;;;;2555660;23;20024;-89
2023/09/19 00:31:37;;;;;;;8.60;5.60;;;;;;;;;;2572194;23;20019;-89
2023/09/19 00:32:37;;;;;;;6.57;4.53;;;;;;;;;;2584957;23;19988;-89
2023/09/19 00:33:38;;;;;;;7.18;5.03;;;;;;;;;;2584865;23;20003;-90
2023/09/19 00:34:38;;;;;;;6.25;4.40;;;;;;;;;;2568075;23;20505;-89
2023/09/19 00:35:38;;;;;;;7.72;5.55;;;;;;;;;;2571569;23;19993;-90
2023/09/19 00:36:39;;;;;;;8.43;4.63;;;;;;;;;;2567979;23;20024;-89
2023/09/19 00:37:40;;;;;;;6.47;4.60;;;;;;;;;;2571165;23;20446;-89
2023/09/19 00:38:40;;;;;;;7.78;5.10;;;;;;;;;;2568181;23;20044;-90
2023/09/19 00:39:40;;;;;;;9.25;4.97;;;;;;;;;;2555655;23;20064;-89
2023/09/19 00:40:44;;;;;;;4.95;4.53;;;;;;;;;;2571369;23;20571;-90
2023/09/19 00:41:45;;;;;;;6.07;4.28;;;;;;;;;;2568028;23;20083;-89
2023/09/19 00:42:46;;;;;;;5.60;4.25;;;;;;;;;;2571176;23;19988;-89
2023/09/19 00:43:47;;;;;;;6.45;5.25;;;;;;;;;;2568023;23;20028;-89
2023/09/19 00:44:50;;;;;;;7.85;4.13;;;;;;;;;;2568150;23;20001;-89
2023/09/19 00:45:53;;;;;;;6.65;4.78;;;;;;;;;;2568596;23;20024;-89
2023/09/19 00:46:53;;;;;;;5.38;4.50;;;;;;;;;;2568321;23;20000;-89
2023/09/19 00:47:54;;;;;;;8.25;5.85;;;;;;;;;;2555739;23;20016;-89
2023/09/19 00:48:54;;;;;;;6.65;4.90;;;;;;;;;;2555670;23;20071;-89
2023/09/19 00:49:55;;;;;;;6.95;4.88;;;;;;;;;;2555909;23;20008;-89
2023/09/19 00:50:59;;;;;;;6.28;4.90;;;;;;;;;;2570351;23;20470;-88
2023/09/19 00:52:00;;;;;;;7.30;4.50;;;;;;;;;;2568201;23;20091;-88
2023/09/19 00:53:00;;;;;;;8.52;5.07;;;;;;;;;;2567943;23;20335;-89
2023/09/19 00:54:02;;;;;;;6.85;5.15;;;;;;;;;;2570270;23;20001;-90
2023/09/19 00:55:03;;;;;;;7.35;4.70;;;;;;;;;;2583522;23;20043;-88
2023/09/19 00:56:07;;;;;;;9.88;5.80;;;;;;;;;;2583369;23;20034;-90
2023/09/19 00:57:08;;;;;;;5.68;4.82;;;;;;;;;;2582879;23;20004;-90
2023/09/19 00:58:10;;;;;;;8.30;4.45;;;;;;;;;;2568485;23;20028;-90
2023/09/19 00:59:11;;;;;;;7.18;4.50;;;;;;;;;;2569763;23;20001;-89
2023/09/19 01:00:15;;;;;;;5.85;4.47;;;;;;;;;;2568196;23;20063;-89
2023/09/19 01:01:16;;;;;;;8.48;5.47;;;;;;;;;;2569638;23;20075;-90
2023/09/19 01:02:17;;;;;;;6.43;4.68;;;;;;;;;;2582321;23;20349;-90
2023/09/19 01:03:18;;;;;;;8.13;4.85;;;;;;;;;;2567138;23;20099;-89
2023/09/19 01:04:18;;;;;;;6.53;4.15;;;;;;;;;;2567214;23;20452;-89
2023/09/19 01:05:19;;;;;;;5.38;4.63;;;;;;;;;;2581308;23;20026;-89
2023/09/19 01:06:20;;;;;;;6.78;4.38;;;;;;;;;;2567953;23;20028;-90
2023/09/19 01:07:22;;;;;;;9.55;4.80;;;;;;;;;;2555700;23;20506;-90
2023/09/19 01:08:23;;;;;;;6.30;4.40;;;;;;;;;;2567916;23;20087;-90
2023/09/19 01:09:23;;;;;;;5.20;4.13;;;;;;;;;;2568078;23;20037;-89
2023/09/19 01:10:24;;;;;;;6.38;4.30;;;;;;;;;;2568006;23;20489;-90
2023/09/19 01:11:39;;;;;;;5.28;4.28;;;;;;;;;;2555670;23;20012;-90
2023/09/19 01:12:58;;;;;;;7.13;4.43;;;;;;;;;;2558271;23;20011;-89
2023/09/19 01:14:27;;;;;;;8.05;4.03;;;;;;;;;;2567984;23;20017;-89
2023/09/19 01:15:30;;;;;;;7.50;4.43;;;;;;;;;;2565101;23;20004;-90
2023/09/19 01:17:06;;;;;;;5.78;4.57;;;;;;;;;;2556070;23;19997;-89
2023/09/19 01:18:24;;;;;;;5.65;4.25;;;;;;;;;;2525242;23;20021;-89
2023/09/19 01:19:37;;;;;;;7.80;5.00;;;;;;;;;;2559242;23;20068;-89
2023/09/19 01:20:48;;;;;;;6.70;4.40;;;;;;;;;;2557597;23;20530;-90
2023/09/19 01:22:24;;;;;;;7.95;4.63;;;;;;;;;;2557635;23;20087;-90
2023/09/19 01:23:27;;;;;;;5.90;4.35;;;;;;;;;;2562422;23;20000;-89
2023/09/19 01:25:05;;;;;;;5.90;4.30;;;;;;;;;;2567844;23;20026;-89
2023/09/19 01:26:32;;;;;;;6.88;4.53;;;;;;;;;;2567950;23;20001;-89
2023/09/19 01:28:01;;;;;;;6.80;4.28;;;;;;;;;;2560868;23;20000;-89
2023/09/19 01:29:19;;;;;;;5.75;4.40;;;;;;;;;;2561300;23;20410;-90
2023/09/19 01:30:24;;;;;;;6.38;4.57;;;;;;;;;;2572465;23;20091;-89
2023/09/19 01:31:28;;;;;;;6.53;4.80;;;;;;;;;;2580978;23;20015;-89
2023/09/19 01:32:29;;;;;;;7.90;4.97;;;;;;;;;;2567942;23;20091;-89
2023/09/19 01:34:03;;;;;;;6.60;5.10;;;;;;;;;;2571651;23;20025;-89
2023/09/19 01:35:04;;;;;;;6.57;5.00;;;;;;;;;;2583079;23;20000;-90
2023/09/19 01:36:05;;;;;;;6.30;4.50;;;;;;;;;;2582912;23;20082;-89
2023/09/19 01:37:05;;;;;;;7.78;5.28;;;;;;;;;;2582901;23;20094;-89
2023/09/19 01:38:09;;;;;;;7.35;5.00;;;;;;;;;;2567934;23;20466;-89
2023/09/19 01:39:13;;;;;;;7.93;4.88;;;;;;;;;;2569754;23;20001;-89
2023/09/19 01:40:16;;;;;;;6.38;4.85;;;;;;;;;;2582333;23;20007;-90
2023/09/19 01:41:25;;;;;;;6.43;4.43;;;;;;;;;;2567954;23;20052;-89
2023/09/19 01:42:45;;;;;;;8.98;5.35;;;;;;;;;;2557117;23;20016;-90
2023/09/19 01:43:47;;;;;;;5.97;4.50;;;;;;;;;;2559027;23;20461;-89
2023/09/19 01:44:47;;;;;;;4.63;4.13;;;;;;;;;;2555676;23;20059;-89
2023/09/19 01:45:57;;;;;;;7.05;4.75;;;;;;;;;;2555391;23;20477;-89
2023/09/19 01:47:04;;;;;;;7.28;4.35;;;;;;;;;;2571982;23;20447;-89
2023/09/19 01:48:38;;;;;;;6.80;4.72;;;;;;;;;;2582890;23;20206;-90
2023/09/19 01:49:50;;;;;;;8.80;5.22;;;;;;;;;;2567945;23;20120;-90
2023/09/19 01:51:00;;;;;;;6.38;4.95;;;;;;;;;;2564570;23;20005;-90
2023/09/19 01:52:09;;;;;;;7.40;4.78;;;;;;;;;;2577247;23;20005;-90
2023/09/19 01:53:19;;;;;;;5.25;3.95;;;;;;;;;;2567531;23;20063;-89
2023/09/19 01:54:26;;;;;;;6.93;4.78;;;;;;;;;;2558408;23;20406;-89
2023/09/19 01:55:29;;;;;;;6.43;5.20;;;;;;;;;;2557666;23;20023;-89
2023/09/19 01:56:36;;;;;;;7.72;4.80;;;;;;;;;;2567798;23;20084;-89
2023/09/19 01:57:59;;;;;;;6.60;4.70;;;;;;;;;;2556881;23;20458;-89
2023/09/19 01:59:05;;;;;;;6.25;4.32;;;;;;;;;;2574622;23;20264;-89
2023/09/19 02:00:08;;;;;;;6.28;4.43;;;;;;;;;;2582390;23;20004;-89
2023/09/19 02:01:15;;;;;;;7.10;4.70;;;;;;;;;;2567780;23;20004;-89
2023/09/19 02:02:17;;;;;;;7.57;4.80;;;;;;;;;;2568041;23;20012;-89
2023/09/19 02:03:18;;;;;;;6.78;4.65;;;;;;;;;;2555689;23;20059;-89
2023/09/19 02:04:18;;;;;;;5.55;4.18;;;;;;;;;;2568524;23;20063;-90
2023/09/19 02:05:25;;;;;;;8.77;4.70;;;;;;;;;;2568147;23;20052;-90
2023/09/19 02:06:26;;;;;;;7.28;4.57;;;;;;;;;;2556455;23;20423;-89
2023/09/19 02:07:27;;;;;;;6.85;4.15;;;;;;;;;;2568101;23;20134;-88
2023/09/19 02:08:27;;;;;;;7.40;5.18;;;;;;;;;;2567877;23;20072;-90
2023/09/19 02:09:28;;;;;;;6.32;4.78;;;;;;;;;;2555317;23;20465;-89
2023/09/19 02:10:28;;;;;;;10.60;4.60;;;;;;;;;;2555343;23;19993;-90
2023/09/19 02:11:29;;;;;;;7.05;4.43;;;;;;;;;;2567713;23;20386;-89
2023/09/19 02:12:32;;;;;;;7.35;4.85;;;;;;;;;;2584367;23;20019;-89
2023/09/19 02:13:33;;;;;;;8.27;5.13;;;;;;;;;;2585099;23;20098;-89
2023/09/19 02:14:34;;;;;;;7.93;5.07;;;;;;;;;;2584789;23;20056;-90
2023/09/19 02:15:35;;;;;;;7.28;4.85;;;;;;;;;;2584685;23;20369;-89
2023/09/19 02:16:36;;;;;;;7.35;5.05;;;;;;;;;;2567713;23;20000;-89
2023/09/19 02:17:36;;;;;;;7.32;5.20;;;;;;;;;;2555467;23;20471;-90
2023/09/19 02:18:36;;;;;;;6.78;4.70;;;;;;;;;;2571383;23;20024;-90
2023/09/19 02:19:38;;;;;;;7.80;4.88;;;;;;;;;;2567887;23;20072;-90
2023/09/19 02:20:39;;;;;;;7.78;5.78;;;;;;;;;;2555790;23;20018;-90
2023/09/19 02:21:40;;;;;;;6.50;4.57;;;;;;;;;;2555416;23;19993;-89
2023/09/19 02:22:41;;;;;;;6.07;4.82;;;;;;;;;;2571002;23;20022;-90
2023/09/19 02:23:42;;;;;;;7.80;4.95;;;;;;;;;;2568099;23;20008;-90
2023/09/19 02:24:42;;;;;;;7.25;4.88;;;;;;;;;;2567651;23;20379;-90
2023/09/19 02:25:43;;;;;;;6.25;4.68;;;;;;;;;;2571161;23;19996;-90
2023/09/19 02:26:43;;;;;;;6.35;4.30;;;;;;;;;;2567571;23;19992;-89
2023/09/19 02:27:44;;;;;;;5.53;4.32;;;;;;;;;;2570855;23;20009;-89
2023/09/19 02:28:45;;;;;;;7.38;4.55;;;;;;;;;;2567795;23;20024;-90
2023/09/19 02:29:46;;;;;;;6.10;4.53;;;;;;;;;;2571352;23;19988;-90
2023/09/19 02:30:50;;;;;;;5.68;4.80;;;;;;;;;;2567923;23;21418;-89
2023/09/19 02:31:50;;;;;;;6.93;4.32;;;;;;;;;;2555757;23;20490;-89
2023/09/19 02:32:51;;;;;;;7.13;4.75;;;;;;;;;;2107409;23;10505298;-89
2023/09/19 02:33:51;;;;;;;6.85;4.88;;;;;;;;;;2555226;23;20459;-89
2023/09/19 02:34:52;;;;;;;7.13;5.15;;;;;;;;;;2569862;23;20000;-89
2023/09/19 02:36:00;;;;;;;7.10;5.15;;;;;;;;;;2583628;23;20004;-90
2023/09/19 02:37:00;;;;;;;6.65;4.82;;;;;;;;;;2567792;23;20016;-89
2023/09/19 02:38:02;;;;;;;6.50;4.30;;;;;;;;;;2555316;23;20005;-89
2023/09/19 02:39:02;;;;;;;7.75;4.22;;;;;;;;;;2569755;23;20025;-89
2023/09/19 02:40:05;;;;;;;7.30;4.60;;;;;;;;;;2582969;23;20333;-89
2023/09/19 02:41:05;;;;;;;5.80;4.90;;;;;;;;;;2567799;23;20386;-90
2023/09/19 02:42:06;;;;;;;5.72;4.80;;;;;;;;;;2567506;23;20009;-89
2023/09/19 02:43:08;;;;;;;8.95;5.28;;;;;;;;;;2567873;23;20100;-90
2023/09/19 02:44:08;;;;;;;6.53;4.93;;;;;;;;;;2555451;23;20091;-89
2023/09/19 02:45:09;;;;;;;6.05;4.32;;;;;;;;;;2567796;23;20091;-90
2023/09/19 02:46:11;;;;;;;6.82;4.65;;;;;;;;;;2567801;23;20458;-89
2023/09/19 02:47:11;;;;;;;6.65;4.68;;;;;;;;;;2567845;23;20012;-90
2023/09/19 02:48:12;;;;;;;5.78;4.72;;;;;;;;;;2555259;23;20351;-90
2023/09/19 02:49:13;;;;;;;7.05;4.53;;;;;;;;;;2568743;23;20000;-90
2023/09/19 02:50:15;;;;;;;8.20;4.82;;;;;;;;;;2582254;23;20362;-89
2023/09/19 02:51:16;;;;;;;6.55;4.55;;;;;;;;;;2567786;23;20013;-90
2023/09/19 02:52:16;;;;;;;8.07;4.72;;;;;;;;;;2568610;23;20001;-89
2023/09/19 02:53:17;;;;;;;7.00;5.00;;;;;;;;;;2567558;23;20104;-89
2023/09/19 02:54:17;;;;;;;7.50;4.70;;;;;;;;;;2568422;23;20009;-89
2023/09/19 02:55:19;;;;;;;9.30;4.55;;;;;;;;;;2581914;23;20004;-89
2023/09/19 02:56:19;;;;;;;7.88;4.47;;;;;;;;;;2581552;23;20008;-89
2023/09/19 02:57:19;;;;;;;8.10;4.80;;;;;;;;;;2581817;23;20033;-90
2023/09/19 02:58:20;;;;;;;7.93;4.72;;;;;;;;;;2567547;23;20088;-90
2023/09/19 02:59:20;;;;;;;7.43;5.05;;;;;;;;;;2555287;23;20188;-90
2023/09/19 03:00:21;;;;;;;7.45;4.80;;;;;;;;;;2555078;23;20013;-90
2023/09/19 03:01:22;;;;;;;5.22;4.40;;;;;;;;;;2568940;23;20004;-89
2023/09/19 03:02:24;;;;;;;5.38;4.45;;;;;;;;;;2567707;23;20058;-89
2023/09/19 03:03:24;;;;;;;7.05;4.30;;;;;;;;;;2556355;23;20028;-90
2023/09/19 03:04:27;;;;;;;7.20;4.72;;;;;;;;;;2555975;23;20015;-89
2023/09/19 03:05:30;;;;;;;5.72;4.45;;;;;;;;;;2572945;22;20012;-90
2023/09/19 03:06:31;;;;;;;6.10;4.45;;;;;;;;;;2598473;22;19995;-90
2023/09/19 03:07:31;;;;;;;6.25;4.88;;;;;;;;;;2580771;23;20086;-90
2023/09/19 03:08:35;;;;;;;6.47;4.68;;;;;;;;;;2584861;23;20026;-90
2023/09/19 03:09:36;;;;;;;6.80;4.57;;;;;;;;;;2584650;23;20000;-89
2023/09/19 03:10:37;;;;;;;6.38;4.82;;;;;;;;;;2568279;23;20008;-89
2023/09/19 03:11:40;;;;;;;5.80;4.43;;;;;;;;;;2568630;23;20070;-90
2023/09/19 03:12:40;;;;;;;7.47;4.47;;;;;;;;;;2568613;23;20007;-89
2023/09/19 03:13:42;;;;;;;8.30;4.68;;;;;;;;;;2568492;23;20044;-89
2023/09/19 03:14:42;;;;;;;6.18;4.25;;;;;;;;;;2584247;22;20091;-90
2023/09/19 03:15:50;;;;;;;5.78;4.63;;;;;;;;;;2597625;22;19987;-90
2023/09/19 03:16:52;;;;;;;6.47;4.60;;;;;;;;;;2581098;23;20015;-90
2023/09/19 03:17:53;;;;;;;6.15;4.43;;;;;;;;;;2583760;22;20038;-90
2023/09/19 03:18:54;;;;;;;8.00;5.32;;;;;;;;;;2581117;23;20489;-89
2023/09/19 03:19:54;;;;;;;6.85;4.70;;;;;;;;;;2581014;23;20000;-89
2023/09/19 03:20:55;;;;;;;5.78;4.40;;;;;;;;;;2580910;23;20393;-90
2023/09/19 03:21:57;;;;;;;5.57;4.88;;;;;;;;;;2581025;23;20000;-89
2023/09/19 03:22:57;;;;;;;11.23;5.63;;;;;;;;;;2568772;23;20012;-89
2023/09/19 03:23:58;;;;;;;6.90;4.40;;;;;;;;;;2580887;23;20362;-89
2023/09/19 03:25:00;;;;;;;5.70;4.60;;;;;;;;;;2583169;23;20327;-89
2023/09/19 03:26:01;;;;;;;8.32;4.90;;;;;;;;;;2597301;22;20030;-90
2023/09/19 03:27:01;;;;;;;7.55;4.38;;;;;;;;;;2581680;23;20160;-90
2023/09/19 03:28:05;;;;;;;7.43;5.13;;;;;;;;;;2583466;23;20079;-89
2023/09/19 03:29:06;;;;;;;6.35;4.28;;;;;;;;;;2586452;23;20000;-89
2023/09/19 03:30:13;;;;;;;6.18;4.80;;;;;;;;;;2582597;23;20000;-88
2023/09/19 03:31:13;;;;;;;6.47;4.38;;;;;;;;;;2581862;23;20153;-88
2023/09/19 03:32:13;;;;;;;6.25;4.30;;;;;;;;;;2568504;23;20445;-88
2023/09/19 03:33:14;;;;;;;6.68;4.72;;;;;;;;;;2581776;23;20011;-88
2023/09/19 03:34:14;;;;;;;7.88;4.65;;;;;;;;;;2595480;22;20115;-88
2023/09/19 03:35:15;;;;;;;7.65;5.05;;;;;;;;;;2581097;23;20004;-88
2023/09/19 03:36:16;;;;;;;7.57;4.55;;;;;;;;;;2581884;22;20187;-88
2023/09/19 03:37:17;;;;;;;7.32;4.90;;;;;;;;;;2581206;23;20089;-89
2023/09/19 03:38:17;;;;;;;11.50;4.57;;;;;;;;;;2582000;22;20019;-88
2023/09/19 03:39:18;;;;;;;8.05;4.55;;;;;;;;;;2580859;23;20008;-88
2023/09/19 03:40:21;;;;;;;7.97;5.60;;;;;;;;;;2568575;23;20056;-88
2023/09/19 03:41:21;;;;;;;7.80;5.15;;;;;;;;;;2582076;22;20082;-88
2023/09/19 03:42:26;;;;;;;8.65;5.18;;;;;;;;;;2581032;23;20069;-89
2023/09/19 03:43:27;;;;;;;7.75;5.55;;;;;;;;;;2568841;23;19997;-88
2023/09/19 03:44:27;;;;;;;7.10;5.25;;;;;;;;;;2568273;23;20128;-88
2023/09/19 03:45:27;;;;;;;6.32;5.50;;;;;;;;;;2568282;23;20084;-88
2023/09/19 03:46:28;;;;;;;17.17;5.82;;;;;;;;;;2584880;23;20000;-88
2023/09/19 03:47:29;;;;;;;8.13;5.10;;;;;;;;;;2580939;23;20495;-88
2023/09/19 03:48:29;;;;;;;6.88;4.65;;;;;;;;;;2584903;23;20488;-88
2023/09/19 03:49:30;;;;;;;7.85;4.68;;;;;;;;;;2598285;22;20078;-88
2023/09/19 03:50:33;;;;;;;7.82;5.15;;;;;;;;;;2598485;22;19991;-88
2023/09/19 03:51:34;;;;;;;6.95;4.82;;;;;;;;;;2585239;23;20071;-88
2023/09/19 03:52:34;;;;;;;7.20;4.78;;;;;;;;;;2584931;22;20019;-88
2023/09/19 03:53:43;;;;;;;8.20;5.17;;;;;;;;;;2492144;23;10103508;-90
2023/09/19 03:54:43;;;;;;;7.20;5.07;;;;;;;;;;2586211;22;20235;-89
2023/09/19 03:55:46;;;;;;;8.93;5.40;;;;;;;;;;2580710;23;20435;-89
2023/09/19 03:56:46;;;;;;;7.40;5.40;;;;;;;;;;2580978;23;20037;-88
2023/09/19 03:57:50;;;;;;;6.55;4.95;;;;;;;;;;2583791;23;20010;-89
2023/09/19 03:58:50;;;;;;;5.25;4.55;;;;;;;;;;2580999;23;20421;-88
2023/09/19 03:59:53;;;;;;;6.65;4.85;;;;;;;;;;2568365;23;20059;-89
2023/09/19 04:00:57;;;;;;;9.48;5.32;;;;;;;;;;2583740;22;20043;-88
2023/09/19 04:01:58;;;;;;;8.25;4.50;;;;;;;;;;2596787;22;20010;-88
2023/09/19 04:02:58;;;;;;;6.32;5.35;;;;;;;;;;2581062;23;20477;-90
2023/09/19 04:04:01;;;;;;;8.43;5.43;;;;;;;;;;2568259;23;20390;-90
2023/09/19 04:05:02;;;;;;;10.73;6.82;;;;;;;;;;2568715;23;20047;-90
2023/09/19 04:06:02;;;;;;;7.32;5.70;;;;;;;;;;2568102;23;20624;-89
2023/09/19 04:07:03;;;;;;;8.13;5.13;;;;;;;;;;2568445;23;20011;-89
2023/09/19 04:08:04;;;;;;;8.45;5.13;;;;;;;;;;2582590;23;20442;-89
2023/09/19 04:09:06;;;;;;;6.75;5.82;;;;;;;;;;2580853;23;20004;-89
2023/09/19 04:10:09;;;;;;;7.13;5.45;;;;;;;;;;2580858;23;20019;-88
2023/09/19 04:11:09;;;;;;;9.10;4.93;;;;;;;;;;2580874;23;20004;-88
2023/09/19 04:12:10;;;;;;;11.63;5.40;;;;;;;;;;2568545;23;20008;-89
2023/09/19 04:13:10;;;;;;;9.80;7.00;;;;;;;;;;2580591;23;20692;-88
2023/09/19 04:14:11;;;;;;;7.28;5.20;;;;;;;;;;2582077;23;20473;-88
2023/09/19 04:15:13;;;;;;;7.43;5.40;;;;;;;;;;2580651;23;20024;-90
2023/09/19 04:16:13;;;;;;;5.88;4.80;;;;;;;;;;2582092;22;20430;-90
2023/09/19 04:17:13;;;;;;;9.10;4.90;;;;;;;;;;2580696;23;20058;-89
2023/09/19 04:18:14;;;;;;;7.40;5.72;;;;;;;;;;2579126;23;20105;-88
2023/09/19 04:19:14;;;;;;;11.07;5.60;;;;;;;;;;2581041;23;20009;-89
2023/09/19 04:20:17;;;;;;;10.52;5.35;;;;;;;;;;2594731;23;20313;-90
2023/09/19 04:21:19;;;;;;;7.97;5.13;;;;;;;;;;2587347;23;20020;-90
2023/09/19 04:22:19;;;;;;;8.60;5.18;;;;;;;;;;2581719;22;20081;-90
2023/09/19 04:23:20;;;;;;;7.53;5.50;;;;;;;;;;2594995;22;20263;-88
2023/09/19 04:24:21;;;;;;;8.52;5.35;;;;;;;;;;2594893;22;20037;-89
2023/09/19 04:25:21;;;;;;;11.05;5.90;;;;;;;;;;2594652;22;20453;-91
2023/09/19 04:26:22;;;;;;;7.25;5.55;;;;;;;;;;2580761;23;20046;-91
2023/09/19 04:27:22;;;;;;;9.73;5.40;;;;;;;;;;2581258;23;20422;-90
2023/09/19 04:28:24;;;;;;;9.98;5.35;;;;;;;;;;2580537;23;20015;-90
2023/09/19 04:29:26;;;;;;;8.32;4.78;;;;;;;;;;2567837;23;20019;-90
2023/09/19 04:30:26;;;;;;;7.55;4.97;;;;;;;;;;2581483;22;20011;-90
2023/09/19 04:31:27;;;;;;;7.72;5.07;;;;;;;;;;2580862;23;20008;-91
2023/09/19 04:32:32;;;;;;;7.88;4.97;;;;;;;;;;2569205;23;20123;-90
2023/09/19 04:33:35;;;;;;;10.95;5.50;;;;;;;;;;2586030;23;20483;-94
2023/09/19 04:34:35;;;;;;;9.13;5.38;;;;;;;;;;2570089;23;19997;-93
2023/09/19 04:35:36;;;;;;;6.53;4.70;;;;;;;;;;2569634;23;19993;-93
2023/09/19 04:36:36;;;;;;;7.78;5.43;;;;;;;;;;2569717;23;20044;-93
2023/09/19 04:37:41;;;;;;;8.18;5.40;;;;;;;;;;2569692;23;19997;-93
2023/09/19 04:38:41;;;;;;;6.72;4.78;;;;;;;;;;2570606;23;20023;-94
2023/09/19 04:39:42;;;;;;;6.45;4.93;;;;;;;;;;2569735;23;20095;-94
2023/09/19 04:40:42;;;;;;;7.63;4.70;;;;;;;;;;2585256;23;19989;-94
2023/09/19 04:41:44;;;;;;;9.00;5.97;;;;;;;;;;2598674;22;20061;-94
2023/09/19 04:42:46;;;;;;;7.88;5.25;;;;;;;;;;2582203;23;19996;-94
2023/09/19 04:43:46;;;;;;;8.77;4.90;;;;;;;;;;2569581;23;20003;-93
2023/09/19 04:44:49;;;;;;;7.60;4.55;;;;;;;;;;2569766;23;19992;-94
2023/09/19 04:45:50;;;;;;;5.90;4.50;;;;;;;;;;2570038;23;20009;-93
2023/09/19 04:46:51;;;;;;;7.88;4.70;;;;;;;;;;2569851;23;20001;-93
2023/09/19 04:47:52;;;;;;;5.35;4.28;;;;;;;;;;2582261;23;20035;-94
2023/09/19 04:48:52;;;;;;;6.15;4.50;;;;;;;;;;2569648;23;20079;-94
2023/09/19 04:49:52;;;;;;;8.25;4.45;;;;;;;;;;2569546;23;20111;-93
2023/09/19 04:50:53;;;;;;;5.75;4.60;;;;;;;;;;2569561;23;20016;-93
2023/09/19 04:51:55;;;;;;;7.38;4.72;;;;;;;;;;2569462;23;20012;-93
2023/09/19 04:52:55;;;;;;;6.70;4.50;;;;;;;;;;2569699;23;20051;-93
2023/09/19 04:53:56;;;;;;;6.65;4.88;;;;;;;;;;2569474;23;20020;-94
2023/09/19 04:54:57;;;;;;;7.07;5.55;;;;;;;;;;2569168;23;20361;-94
2023/09/19 04:55:58;;;;;;;7.97;5.30;;;;;;;;;;2569708;23;20004;-93
2023/09/19 04:56:58;;;;;;;7.13;5.30;;;;;;;;;;2582230;23;20453;-93
2023/09/19 04:57:58;;;;;;;8.20;5.80;;;;;;;;;;2570209;23;20032;-93
2023/09/19 04:58:59;;;;;;;8.55;5.85;;;;;;;;;;2571560;23;20419;-92
2023/09/19 05:00:00;;;;;;;8.70;5.47;;;;;;;;;;2570690;23;20004;-93
2023/09/19 05:01:04;;;;;;;6.80;5.53;;;;;;;;;;2569998;23;20450;-92
2023/09/19 05:02:04;;;;;;;8.35;6.15;;;;;;;;;;2570183;23;20046;-92
2023/09/19 05:03:06;;;;;;;7.25;4.82;;;;;;;;;;2571192;23;20008;-93
2023/09/19 05:04:06;;;;;;;9.48;5.32;;;;;;;;;;2583785;22;20000;-94
2023/09/19 05:05:08;;;;;;;8.88;5.50;;;;;;;;;;2582124;23;20012;-93
2023/09/19 05:06:08;;;;;;;8.10;5.80;;;;;;;;;;2569513;23;20020;-92
2023/09/19 05:07:10;;;;;;;8.07;5.28;;;;;;;;;;2569558;23;20016;-93
2023/09/19 05:08:14;;;;;;;10.00;5.72;;;;;;;;;;2569826;23;20015;-95
2023/09/19 05:09:15;;;;;;;10.82;6.95;;;;;;;;;;2582407;22;20028;-90
2023/09/19 05:10:18;;;;;;;10.40;6.05;;;;;;;;;;2594952;22;20038;-90
2023/09/19 05:11:21;;;;;;;9.65;5.35;;;;;;;;;;2580435;23;20004;-90
2023/09/19 05:12:21;;;;;;;10.35;6.97;;;;;;;;;;2568737;23;20008;-89
2023/09/19 05:13:24;;;;;;;11.30;6.38;;;;;;;;;;2580560;23;20020;-91
2023/09/19 05:14:24;;;;;;;11.90;6.72;;;;;;;;;;2568256;23;20008;-90
2023/09/19 05:15:25;;;;;;;10.50;6.43;;;;;;;;;;2567714;23;20393;-89
2023/09/19 05:16:29;;;;;;;11.43;5.68;;;;;;;;;;2580782;23;19999;-89
2023/09/19 05:17:30;;;;;;;7.85;5.70;;;;;;;;;;2580676;23;20004;-90
2023/09/19 05:18:31;;;;;;;9.35;6.00;;;;;;;;;;2568088;23;19997;-90
2023/09/19 05:19:32;;;;;;;7.75;5.05;;;;;;;;;;2568560;23;20332;-89
2023/09/19 05:20:34;;;;;;;7.25;5.22;;;;;;;;;;2568029;23;20075;-89
2023/09/19 05:21:35;;;;;;;8.43;5.00;;;;;;;;;;2584909;22;20015;-90
2023/09/19 05:22:35;;;;;;;7.82;5.45;;;;;;;;;;2580688;23;19996;-90
2023/09/19 05:23:36;;;;;;;7.40;4.88;;;;;;;;;;2568231;23;20000;-91
2023/09/19 05:24:37;;;;;;;7.25;5.18;;;;;;;;;;2584206;22;19988;-90
2023/09/19 05:25:39;;;;;;;7.13;5.78;;;;;;;;;;2581029;23;20026;-90
2023/09/19 05:26:40;;;;;;;7.95;5.40;;;;;;;;;;2568074;23;19997;-90
2023/09/19 05:27:40;;;;;;;14.50;6.30;;;;;;;;;;2580659;23;19996;-90
2023/09/19 05:28:43;;;;;;;10.55;6.50;;;;;;;;;;2568131;23;20079;-89
2023/09/19 05:29:44;;;;;;;7.18;5.00;;;;;;;;;;2584070;22;20007;-90
2023/09/19 05:30:44;;;;;;;11.05;6.03;;;;;;;;;;2580552;23;20018;-89
2023/09/19 05:31:45;;;;;;;9.00;5.30;;;;;;;;;;2583353;23;19999;-89
2023/09/19 05:32:45;;;;;;;11.30;5.53;;;;;;;;;;2597029;22;19988;-91
2023/09/19 05:33:45;;;;;;;8.43;5.38;;;;;;;;;;2580227;23;20011;-90
2023/09/19 05:34:49;;;;;;;6.90;5.82;;;;;;;;;;2583496;23;19988;-90
2023/09/19 05:35:50;;;;;;;6.95;5.03;;;;;;;;;;2581874;23;20020;-94
2023/09/19 05:36:51;;;;;;;9.48;5.20;;;;;;;;;;2569472;23;20075;-93
2023/09/19 05:37:54;;;;;;;10.50;5.60;;;;;;;;;;2569582;23;20015;-93
2023/09/19 05:38:55;;;;;;;9.35;5.38;;;;;;;;;;2584933;22;20422;-94
2023/09/19 05:39:56;;;;;;;8.30;5.18;;;;;;;;;;2582052;23;20008;-93
2023/09/19 05:40:56;;;;;;;7.78;5.90;;;;;;;;;;2581972;23;20123;-93
2023/09/19 05:41:57;;;;;;;7.90;5.32;;;;;;;;;;2569530;23;20131;-94
2023/09/19 05:42:57;;;;;;;9.18;5.78;;;;;;;;;;2569354;23;20001;-92
2023/09/19 05:43:59;;;;;;;9.82;6.57;;;;;;;;;;2569623;23;20004;-93
2023/09/19 05:45:00;;;;;;;11.07;5.88;;;;;;;;;;2569697;23;20007;-92
2023/09/19 05:46:00;;;;;;;12.48;5.90;;;;;;;;;;2569375;23;20004;-93
2023/09/19 05:47:04;;;;;;;7.65;5.55;;;;;;;;;;2581772;23;20011;-93
2023/09/19 05:48:09;;;;;;;10.30;5.20;;;;;;;;;;2582679;22;20004;-90
2023/09/19 05:49:10;;;;;;;10.98;5.65;;;;;;;;;;2580297;23;20500;-90
2023/09/19 05:50:10;;;;;;;9.80;4.80;;;;;;;;;;2568104;23;20043;-90
2023/09/19 05:51:10;;;;;;;9.68;5.60;;;;;;;;;;2568040;23;20067;-90
2023/09/19 05:52:11;;;;;;;9.77;5.63;;;;;;;;;;2580294;23;20019;-90
2023/09/19 05:53:14;;;;;;;6.40;4.70;;;;;;;;;;2580336;23;20004;-90
2023/09/19 05:54:15;;;;;;;9.32;5.70;;;;;;;;;;2582030;22;20392;-90
2023/09/19 05:55:15;;;;;;;7.80;4.60;;;;;;;;;;2595016;22;20023;-89
2023/09/19 05:56:18;;;;;;;7.95;4.60;;;;;;;;;;2594606;22;20334;-89
2023/09/19 05:57:19;;;;;;;7.65;5.13;;;;;;;;;;2595205;22;19996;-88
2023/09/19 05:58:20;;;;;;;9.00;5.50;;;;;;;;;;2594880;22;20004;-90
2023/09/19 05:59:20;;;;;;;8.30;5.53;;;;;;;;;;2594722;22;20476;-92
2023/09/19 06:00:22;;;;;;;9.00;5.45;;;;;;;;;;2580816;23;20031;-88
2023/09/19 06:01:23;;;;;;;8.80;5.47;;;;;;;;;;2569358;23;20009;-91
2023/09/19 06:02:23;;;;;;;8.48;5.72;;;;;;;;;;2582135;23;20015;-89
2023/09/19 06:03:23;;;;;;;6.95;4.80;;;;;;;;;;2580746;23;20136;-90
2023/09/19 06:04:25;;;;;;;9.80;5.07;;;;;;;;;;2580254;23;20107;-90
2023/09/19 06:05:26;;;;;;;8.68;4.90;;;;;;;;;;2581050;22;19996;-89
2023/09/19 06:06:27;;;;;;;6.93;4.78;;;;;;;;;;2580900;23;20004;-90
2023/09/19 06:07:36;;;;;;;9.38;5.53;;;;;;;;;;2580473;23;19996;-90
2023/09/19 06:08:36;;;;;;;6.38;4.90;;;;;;;;;;2597822;22;19999;-89
2023/09/19 06:09:36;;;;;;;6.88;4.70;;;;;;;;;;2145531;23;10100998;-89
2023/09/19 06:10:37;;;;;;;6.80;4.82;;;;;;;;;;2567974;23;20012;-90
2023/09/19 06:11:37;;;;;;;5.72;5.10;;;;;;;;;;2567796;23;20001;-89
2023/09/19 06:12:39;;;;;;;6.25;4.95;;;;;;;;;;2584092;23;20130;-89
2023/09/19 06:13:39;;;;;;;7.30;4.57;;;;;;;;;;2580808;23;20346;-89
2023/09/19 06:14:40;;;;;;;6.43;5.28;;;;;;;;;;2580065;23;20000;-89